Pagrindinis puslapis
METAR-TAF:

METAR-TAF

Oro uostai :

Heraklionas, Graikija

platuma: 35-20N, ilguma: 025-11E, Aukštis: 37 m

Dabartinis oras

Ataskaita buvo paskelbta 41 minutes, ne 10:20 UTC
Vėjas 13 kt iš Šiaurės Vakarų
Temperatūra 23°C
Drėgmė 65%
Slėgis 1021 hPa
Matomumas 10 km arba daugiau
Mažai debesys ne aukštis 2500 ft

METAR: LGIR 221020Z 31013KT 9999 FEW025 23/16 Q1021 NOSIG

Laikas: 14:01 (11:01 UTC)

Prognozė

Ataskaita buvo paskelbta 6 valandos ir 1 minutes, ne 05:00 UTC
Prognozė galioja nuo 22 metu 06 UTC su 23 metu 06 UTC
Vėjas 10 kt iš Pietų
Matomumas 10 km arba daugiau
Mažai debesys ne aukštis 2500 ft
Tikimybė 30% :
Laikinai
nuo 22 metu 12 UTC su 22 metu 18 UTC
Su prošvaistėmis ne aukštis 2000 ft
Laikinai
nuo 22 metu 08 UTC su 22 metu 18 UTC
Vėjas 10 kt iš Šiaurės Vakarų
Laikinai
nuo 22 metu 06 UTC su 23 metu 06 UTC
Išsisklaidę debesys ne aukštis 2000 ft

TAF: LGIR 220500Z 2206/2306 18010KT 9999 FEW025 PROB30 TEMPO 2212/2218 BKN020 TEMPO 2208/2218 31010KT TEMPO 2206/2306 SCT020

Orai ataskaitas ir orų prognozės (METAR, TAF).

turimą stotys yra geltonos ir raudonos taškus žemėlapyje.

Perkelti pele per norėdami pamatyti stoties vardą.

Tada spustelėkite, norėdami matyti oro stebėjimo ir prognozės.

Norėdami pakeisti žemėlapį: spustelėkite ant žalios mygtukų su juodo kryžiaus žemyn,; žalią mygtuką su brūkšneliu, jei norite nutolinti; arba žalių rodyklių gretimoms žemėlapius.


METAR-TAF: